createdAt,value
2022-09-03T00:01:50.911Z,4.35
2022-09-03T00:04:44.214Z,3.40
2022-09-03T00:07:47.276Z,3.63
2022-09-03T00:10:48.020Z,3.25
2022-09-03T00:13:23.373Z,3.40
2022-09-03T00:15:53.438Z,3.35
2022-09-03T00:18:25.653Z,3.78
2022-09-03T00:20:59.493Z,3.45
2022-09-03T00:23:30.746Z,3.17
2022-09-03T00:26:10.242Z,3.85
2022-09-03T00:28:45.064Z,3.38
2022-09-03T00:31:28.175Z,3.22
2022-09-03T00:34:01.129Z,3.42
2022-09-03T00:36:42.386Z,3.80
2022-09-03T00:39:18.957Z,4.10
2022-09-03T00:42:13.251Z,3.80
2022-09-03T00:45:07.783Z,3.58
2022-09-03T00:47:44.869Z,4.13
2022-09-03T00:50:19.005Z,4.00
2022-09-03T00:53:05.187Z,4.43
2022-09-03T00:55:35.654Z,3.72
2022-09-03T00:58:18.364Z,3.70
2022-09-03T01:00:45.938Z,3.90
2022-09-03T01:03:53.344Z,4.38
2022-09-03T01:06:39.344Z,4.38
2022-09-03T01:09:35.174Z,4.45
2022-09-03T01:12:32.183Z,4.35
2022-09-03T01:15:17.209Z,4.75
2022-09-03T01:18:04.423Z,5.47
2022-09-03T01:20:55.485Z,4.85
2022-09-03T01:24:02.128Z,5.00
2022-09-03T01:26:52.669Z,5.00
2022-09-03T01:29:35.535Z,5.20
2022-09-03T01:32:34.605Z,4.72
2022-09-03T01:35:06.205Z,4.80
2022-09-03T01:38:12.361Z,5.15
2022-09-03T01:41:27.853Z,4.43
2022-09-03T01:44:06.647Z,4.88
2022-09-03T01:46:40.261Z,5.18
2022-09-03T01:49:31.151Z,4.78
2022-09-03T01:52:11.406Z,4.47
2022-09-03T01:55:00.202Z,4.38
2022-09-03T01:57:39.778Z,4.45
2022-09-03T02:00:13.646Z,4.82
2022-09-03T02:02:44.414Z,5.07
2022-09-03T02:05:14.920Z,4.65
2022-09-03T02:08:06.991Z,4.93
2022-09-03T02:10:48.241Z,4.85
2022-09-03T02:13:29.919Z,4.88
2022-09-03T02:16:01.480Z,5.32
2022-09-03T02:18:37.527Z,5.28
2022-09-03T02:21:05.728Z,6.00
2022-09-03T02:23:33.368Z,6.28
2022-09-03T02:26:03.355Z,5.85
2022-09-03T02:28:32.626Z,7.03
2022-09-03T02:31:00.198Z,8.05
2022-09-03T02:33:28.197Z,8.40
2022-09-03T02:35:55.889Z,8.85
2022-09-03T02:38:26.234Z,9.30
2022-09-03T02:40:54.426Z,9.07
2022-09-03T02:43:41.775Z,10.20
2022-09-03T02:46:15.448Z,10.98
2022-09-03T02:48:43.032Z,10.48
2022-09-03T02:51:14.373Z,10.23
2022-09-03T02:53:42.904Z,11.13
2022-09-03T02:56:10.597Z,10.98
2022-09-03T02:58:38.239Z,9.85
2022-09-03T03:01:06.133Z,9.38
2022-09-03T03:03:33.867Z,9.48
2022-09-03T03:06:05.654Z,9.15
2022-09-03T03:08:35.209Z,9.30
2022-09-03T03:11:02.848Z,9.15
2022-09-03T03:13:32.035Z,8.93
2022-09-03T03:16:06.299Z,8.63
2022-09-03T03:18:34.726Z,8.70
2022-09-03T03:21:15.095Z,8.20
2022-09-03T03:23:42.729Z,8.05
2022-09-03T03:26:13.247Z,7.72
2022-09-03T03:28:42.423Z,8.27
2022-09-03T03:31:12.037Z,8.05
2022-09-03T03:33:40.500Z,7.60
2022-09-03T03:36:14.330Z,8.43
2022-09-03T03:38:43.998Z,8.07
2022-09-03T03:41:24.163Z,7.80
2022-09-03T03:43:59.926Z,8.63
2022-09-03T03:46:36.513Z,8.15
2022-09-03T03:49:06.522Z,8.93
2022-09-03T03:51:35.463Z,9.20
2022-09-03T03:54:05.195Z,9.00
2022-09-03T03:56:34.631Z,8.93
2022-09-03T03:59:03.035Z,8.70
2022-09-03T04:01:30.973Z,9.43
2022-09-03T04:04:00.230Z,9.55
2022-09-03T04:06:28.829Z,10.43
2022-09-03T04:08:56.515Z,9.80
2022-09-03T04:11:24.665Z,10.68
2022-09-03T04:13:52.360Z,13.18
2022-09-03T04:16:25.292Z,16.17
2022-09-03T04:18:54.428Z,15.85
2022-09-03T04:21:29.347Z,14.45
2022-09-03T04:23:57.937Z,13.80
2022-09-03T04:26:33.126Z,13.48
2022-09-03T04:29:05.142Z,13.00
2022-09-03T04:31:33.767Z,12.45
2022-09-03T04:34:01.259Z,13.07
2022-09-03T04:36:31.049Z,12.00
2022-09-03T04:39:00.261Z,12.35
2022-09-03T04:41:29.595Z,11.85
2022-09-03T04:43:58.554Z,12.27
2022-09-03T04:46:33.631Z,11.20
2022-09-03T04:49:02.456Z,11.75
2022-09-03T04:51:30.387Z,10.75
2022-09-03T04:54:02.669Z,11.88
2022-09-03T04:56:32.186Z,11.40
2022-09-03T04:59:02.255Z,11.18
2022-09-03T05:01:31.859Z,11.60
2022-09-03T05:03:59.949Z,11.25
2022-09-03T05:06:28.902Z,11.05
2022-09-03T05:08:56.713Z,11.05
2022-09-03T05:11:25.050Z,11.05
2022-09-03T05:13:54.909Z,10.88
2022-09-03T05:16:24.015Z,9.27
2022-09-03T05:18:57.001Z,8.80
2022-09-03T05:21:24.691Z,8.75
2022-09-03T05:23:53.324Z,9.45
2022-09-03T05:26:29.000Z,9.68
2022-09-03T05:28:59.447Z,9.43
2022-09-03T05:31:30.160Z,10.65
2022-09-03T05:34:00.457Z,10.00
2022-09-03T05:36:30.316Z,9.80
2022-09-03T05:38:59.280Z,8.25
2022-09-03T05:41:28.181Z,10.57
2022-09-03T05:43:59.605Z,8.65
2022-09-03T05:46:32.622Z,8.32
2022-09-03T05:49:05.776Z,7.15
2022-09-03T05:51:34.499Z,6.57
2022-09-03T05:54:02.977Z,6.40
2022-09-03T05:56:31.743Z,6.57
2022-09-03T05:59:01.828Z,6.53
2022-09-03T06:01:35.214Z,6.60
2022-09-03T06:04:08.076Z,6.63
2022-09-03T06:06:39.016Z,5.32
2022-09-03T06:09:23.540Z,5.53
2022-09-03T06:11:52.613Z,4.95
2022-09-03T06:14:20.543Z,5.78
2022-09-03T06:16:50.158Z,5.30
2022-09-03T06:19:17.795Z,5.05
2022-09-03T06:21:46.963Z,4.50
2022-09-03T06:24:17.038Z,4.53
2022-09-03T06:26:45.088Z,4.28
2022-09-03T06:29:12.872Z,3.72
2022-09-03T06:31:40.629Z,3.80
2022-09-03T06:34:08.438Z,4.80
2022-09-03T06:36:36.106Z,3.33
2022-09-03T06:39:03.975Z,3.45
2022-09-03T06:41:35.243Z,3.55
2022-09-03T06:44:05.782Z,3.37
2022-09-03T06:46:39.009Z,3.97
2022-09-03T06:49:07.104Z,2.90
2022-09-03T06:51:36.038Z,2.90
2022-09-03T06:54:08.546Z,3.10
2022-09-03T06:56:40.220Z,3.28
2022-09-03T06:59:10.923Z,3.67
2022-09-03T07:01:43.574Z,3.63
2022-09-03T07:04:13.539Z,4.18
2022-09-03T07:06:42.640Z,6.05
2022-09-03T07:09:12.165Z,5.75
2022-09-03T07:11:47.181Z,4.20
2022-09-03T07:14:19.558Z,4.13
2022-09-03T07:16:48.552Z,4.78
2022-09-03T07:19:16.517Z,4.57
2022-09-03T07:21:49.698Z,3.70
2022-09-03T07:24:19.830Z,4.63
2022-09-03T07:26:48.809Z,5.63
2022-09-03T07:29:20.106Z,5.15
2022-09-03T07:31:51.731Z,3.90
2022-09-03T07:34:20.439Z,3.53
2022-09-03T07:36:51.428Z,3.92
2022-09-03T07:39:19.968Z,3.33
2022-09-03T07:41:47.712Z,3.67
2022-09-03T07:44:19.405Z,3.15
2022-09-03T07:46:50.046Z,3.90
2022-09-03T07:49:17.639Z,3.60
2022-09-03T07:51:46.589Z,3.55
2022-09-03T07:54:14.234Z,3.88
2022-09-03T07:56:41.651Z,3.55
2022-09-03T07:59:09.581Z,3.55
2022-09-03T08:01:39.138Z,3.60
2022-09-03T08:04:09.807Z,2.97
2022-09-03T08:06:38.475Z,3.20
2022-09-03T08:09:09.053Z,2.78
2022-09-03T08:11:39.231Z,2.55
2022-09-03T08:14:08.909Z,2.70
2022-09-03T08:16:45.932Z,2.10
2022-09-03T08:19:14.098Z,2.20
2022-09-03T08:21:42.266Z,2.40
2022-09-03T08:24:11.239Z,3.25
2022-09-03T08:26:51.172Z,2.53
2022-09-03T08:29:20.451Z,2.28
2022-09-03T08:31:48.149Z,2.10
2022-09-03T08:34:17.589Z,2.17
2022-09-03T08:36:47.036Z,2.30
2022-09-03T08:39:15.098Z,2.00
2022-09-03T08:41:45.532Z,2.63
2022-09-03T08:44:31.070Z,1.67
2022-09-03T08:47:26.833Z,2.28
2022-09-03T08:50:14.644Z,3.00
2022-09-03T08:52:50.148Z,2.30
2022-09-03T08:55:31.383Z,3.30
2022-09-03T08:58:29.762Z,2.65
2022-09-03T09:01:14.940Z,2.80
2022-09-03T09:04:20.366Z,2.22
2022-09-03T09:07:01.845Z,2.30
2022-09-03T09:10:14.786Z,1.90
2022-09-03T09:15:23.844Z,1.98
2022-09-03T09:18:22.762Z,3.22
2022-09-03T09:20:52.140Z,1.98
2022-09-03T09:23:30.522Z,2.63
2022-09-03T09:26:01.343Z,2.83
2022-09-03T09:28:37.758Z,1.88
2022-09-03T09:31:10.202Z,2.00
2022-09-03T09:33:38.603Z,3.58
2022-09-03T09:36:09.885Z,2.13
2022-09-03T09:38:39.703Z,2.73
2022-09-03T09:41:27.554Z,1.90
2022-09-03T09:44:02.370Z,1.95
2022-09-03T09:46:39.508Z,2.22
2022-09-03T09:49:31.398Z,2.30
2022-09-03T09:52:08.749Z,2.42
2022-09-03T09:54:36.231Z,2.35
2022-09-03T09:57:06.778Z,2.50
2022-09-03T09:59:35.554Z,2.17
2022-09-03T10:02:10.431Z,2.60
2022-09-03T10:04:44.109Z,1.83
2022-09-03T10:07:25.502Z,2.25
2022-09-03T10:10:22.425Z,1.88
2022-09-03T10:13:30.127Z,4.22
2022-09-03T10:16:10.900Z,2.80
2022-09-03T10:19:16.070Z,2.90
2022-09-03T10:22:18.851Z,2.20
2022-09-03T10:24:59.016Z,2.15
2022-09-03T10:27:26.628Z,2.00
2022-09-03T10:29:54.171Z,2.30
2022-09-03T10:32:42.786Z,3.30
2022-09-03T10:35:35.144Z,2.65
2022-09-03T10:38:38.045Z,2.35
2022-09-03T10:41:13.359Z,2.40
2022-09-03T10:44:06.647Z,1.85
2022-09-03T10:47:03.298Z,2.75
2022-09-03T10:49:55.281Z,2.50
2022-09-03T10:52:44.446Z,2.00
2022-09-03T10:55:11.953Z,2.60
2022-09-03T10:58:01.345Z,2.00
2022-09-03T11:00:31.432Z,1.80
2022-09-03T11:03:35.947Z,1.70
2022-09-03T11:06:30.732Z,1.70
2022-09-03T11:09:06.823Z,2.33
2022-09-03T11:11:40.912Z,2.10
2022-09-03T11:14:15.345Z,2.25
2022-09-03T11:16:48.480Z,2.08
2022-09-03T11:19:23.568Z,2.88
2022-09-03T11:21:52.579Z,2.30
2022-09-03T11:24:24.326Z,2.20
2022-09-03T11:27:10.361Z,1.85
2022-09-03T11:29:46.405Z,2.00
2022-09-03T11:32:22.040Z,2.20
2022-09-03T11:34:52.104Z,2.33
2022-09-03T11:37:24.115Z,2.05
2022-09-03T11:40:20.222Z,2.50
2022-09-03T11:42:48.149Z,2.33
2022-09-03T11:45:35.229Z,2.17
2022-09-03T11:48:02.971Z,1.85
2022-09-03T11:50:32.670Z,1.88
2022-09-03T11:53:23.261Z,1.80
2022-09-03T11:56:16.521Z,2.40
2022-09-03T11:58:44.296Z,2.08
2022-09-03T12:01:16.206Z,1.98
2022-09-03T12:04:03.592Z,2.15
2022-09-03T12:06:54.421Z,2.00
2022-09-03T12:09:59.535Z,2.10
2022-09-03T12:12:59.630Z,1.88
2022-09-03T12:15:51.300Z,2.03
2022-09-03T12:18:45.740Z,2.17
2022-09-03T12:21:17.063Z,1.98
2022-09-03T12:23:49.340Z,2.00
2022-09-03T12:26:20.497Z,2.00
2022-09-03T12:29:00.905Z,1.85
2022-09-03T12:31:31.613Z,2.22
2022-09-03T12:34:15.115Z,2.22
2022-09-03T12:36:48.332Z,2.30
2022-09-03T12:40:04.471Z,2.20
2022-09-03T12:42:15.969Z,2.22
2022-09-03T12:44:43.456Z,2.47
2022-09-03T12:50:08.037Z,2.42
2022-09-03T12:52:45.184Z,2.58
2022-09-03T12:55:30.554Z,2.90
2022-09-03T12:58:27.283Z,2.85
2022-09-03T13:01:10.093Z,3.03
2022-09-03T13:04:01.830Z,2.25
2022-09-03T13:06:35.100Z,2.40
2022-09-03T13:09:06.559Z,3.17
2022-09-03T13:11:39.256Z,2.72
2022-09-03T13:14:14.553Z,2.47
2022-09-03T13:17:08.782Z,2.55
2022-09-03T13:19:46.672Z,2.70
2022-09-03T13:22:22.715Z,3.05
2022-09-03T13:25:14.212Z,2.53
2022-09-03T13:28:21.237Z,2.77
2022-09-03T13:31:12.383Z,2.50
2022-09-03T13:33:49.942Z,2.38
2022-09-03T13:36:21.630Z,2.90
2022-09-03T13:39:10.482Z,2.65
2022-09-03T13:41:54.497Z,2.47
2022-09-03T13:44:50.198Z,2.40
2022-09-03T13:47:37.904Z,2.20
2022-09-03T13:50:24.098Z,2.70
2022-09-03T13:53:10.939Z,2.10
2022-09-03T13:55:49.090Z,2.20
2022-09-03T13:58:42.995Z,2.50
2022-09-03T14:01:39.719Z,2.00
2022-09-03T14:04:20.093Z,2.15
2022-09-03T14:07:03.067Z,2.28
2022-09-03T14:09:54.441Z,2.78
2022-09-03T14:12:46.816Z,2.70
2022-09-03T14:18:16.896Z,2.38
2022-09-03T14:20:56.838Z,2.70
2022-09-03T14:23:33.366Z,2.47
2022-09-03T14:26:05.790Z,3.38
2022-09-03T14:28:49.865Z,2.72
2022-09-03T14:31:39.358Z,2.95
2022-09-03T14:34:31.286Z,2.63
2022-09-03T14:37:17.277Z,3.03
2022-09-03T14:39:55.235Z,2.92
2022-09-03T14:42:31.575Z,2.88
2022-09-03T14:45:13.142Z,3.50
2022-09-03T14:47:52.846Z,2.95
2022-09-03T14:50:40.276Z,2.55
2022-09-03T14:53:40.675Z,2.70
2022-09-03T14:56:28.482Z,2.60
2022-09-03T14:59:11.146Z,2.78
2022-09-03T15:01:39.956Z,2.63
2022-09-03T15:04:55.302Z,3.15
2022-09-03T15:07:24.015Z,2.63
2022-09-03T15:10:16.910Z,3.00
2022-09-03T15:12:50.040Z,2.80
2022-09-03T15:15:27.134Z,2.50
2022-09-03T15:18:23.259Z,2.83
2022-09-03T15:20:52.295Z,2.80
2022-09-03T15:23:47.826Z,3.80
2022-09-03T15:26:27.941Z,2.85
2022-09-03T15:29:11.530Z,3.08
2022-09-03T15:32:00.364Z,2.97
2022-09-03T15:35:08.808Z,2.90
2022-09-03T15:37:57.797Z,3.00
2022-09-03T15:40:31.410Z,2.58
2022-09-03T15:43:09.682Z,2.90
2022-09-03T15:45:48.398Z,2.30
2022-09-03T15:48:50.995Z,2.38
2022-09-03T15:51:31.134Z,2.38
2022-09-03T15:54:07.146Z,2.35
2022-09-03T15:56:58.258Z,2.38
2022-09-03T15:59:59.693Z,2.35
2022-09-03T16:02:47.586Z,2.00
2022-09-03T16:05:47.609Z,2.30
2022-09-03T16:08:19.011Z,2.50
2022-09-03T16:11:07.666Z,3.10
2022-09-03T16:13:49.410Z,2.53
2022-09-03T16:16:45.555Z,2.47
2022-09-03T16:19:18.490Z,2.50
2022-09-03T16:21:49.353Z,2.50
2022-09-03T16:24:26.078Z,2.40
2022-09-03T16:27:16.481Z,2.13
2022-09-03T16:29:57.918Z,2.53
2022-09-03T16:32:31.022Z,2.70
2022-09-03T16:35:07.665Z,2.63
2022-09-03T16:37:48.180Z,2.45
2022-09-03T16:40:26.699Z,2.20
2022-09-03T16:43:18.103Z,2.10
2022-09-03T16:46:22.165Z,2.47
2022-09-03T16:48:58.822Z,2.38
2022-09-03T16:51:49.679Z,2.45
2022-09-03T16:55:10.697Z,2.88
2022-09-03T16:57:54.511Z,3.20
2022-09-03T17:00:22.578Z,2.95
2022-09-03T17:03:06.973Z,2.17
2022-09-03T17:05:52.183Z,2.20
2022-09-03T17:08:46.164Z,2.38
2022-09-03T17:11:50.961Z,7.60
2022-09-03T17:14:33.195Z,2.78
2022-09-03T17:17:27.514Z,2.50
2022-09-03T17:20:20.064Z,2.22
2022-09-03T17:25:31.783Z,2.42
2022-09-03T17:28:25.547Z,2.20
2022-09-03T17:31:16.116Z,2.35
2022-09-03T17:33:55.390Z,2.80
2022-09-03T17:36:27.483Z,3.10
2022-09-03T17:41:53.303Z,2.80
2022-09-03T17:44:46.775Z,2.78
2022-09-03T17:47:26.075Z,2.90
2022-09-03T17:50:11.271Z,2.95
2022-09-03T17:53:00.105Z,3.30
2022-09-03T17:55:37.399Z,3.15
2022-09-03T17:58:20.919Z,3.00
2022-09-03T18:01:21.552Z,3.10
2022-09-03T18:04:05.180Z,3.28
2022-09-03T18:06:42.368Z,3.28
2022-09-03T18:09:23.499Z,3.08
2022-09-03T18:12:03.013Z,4.32
2022-09-03T18:14:39.434Z,3.58
2022-09-03T18:17:28.893Z,3.50
2022-09-03T18:20:21.471Z,3.30
2022-09-03T18:23:16.059Z,3.47
2022-09-03T18:26:07.024Z,3.60
2022-09-03T18:29:01.607Z,3.53
2022-09-03T18:31:47.680Z,3.50
2022-09-03T18:34:41.264Z,3.90
2022-09-03T18:37:27.306Z,3.60
2022-09-03T18:40:13.611Z,3.45
2022-09-03T18:43:11.707Z,4.05
2022-09-03T18:47:22.493Z,3.78
2022-09-03T18:49:27.868Z,4.22
2022-09-03T18:52:36.531Z,3.50
2022-09-03T18:55:45.050Z,4.47
2022-09-03T18:59:06.584Z,4.45
2022-09-03T19:01:58.259Z,4.68
2022-09-03T19:04:59.428Z,4.50
2022-09-03T19:08:14.693Z,5.32
2022-09-03T19:11:36.094Z,4.70
2022-09-03T19:14:31.624Z,4.90
2022-09-03T19:17:41.489Z,5.10
2022-09-03T19:20:40.133Z,5.95
2022-09-03T19:23:25.976Z,5.28
2022-09-03T19:26:14.596Z,4.88
2022-09-03T19:29:05.952Z,4.75
2022-09-03T19:32:05.385Z,4.28
2022-09-03T19:35:28.426Z,4.47
2022-09-03T19:41:32.223Z,4.00
2022-09-03T19:44:47.272Z,4.22
2022-09-03T19:48:02.967Z,5.70
2022-09-03T19:50:57.415Z,6.40
2022-09-03T19:53:44.058Z,4.85
2022-09-03T19:56:40.026Z,6.85
2022-09-03T19:59:34.418Z,8.85
2022-09-03T20:02:20.644Z,5.72
2022-09-03T20:05:18.191Z,6.28
2022-09-03T20:08:08.180Z,4.72
2022-09-03T20:10:36.714Z,4.63
2022-09-03T20:13:09.230Z,4.60
2022-09-03T20:16:13.454Z,4.60
2022-09-03T20:18:48.086Z,6.38
2022-09-03T20:21:47.277Z,6.30
2022-09-03T20:24:40.044Z,6.30
2022-09-03T20:27:34.820Z,7.18
2022-09-03T20:30:09.408Z,7.25
2022-09-03T20:32:39.937Z,6.50
2022-09-03T20:35:32.570Z,6.30
2022-09-03T20:38:09.380Z,5.22
2022-09-03T20:40:58.486Z,4.95
2022-09-03T20:44:17.922Z,5.00
2022-09-03T20:47:30.011Z,4.97
2022-09-03T20:50:13.116Z,5.07
2022-09-03T20:53:17.064Z,4.72
2022-09-03T20:55:49.199Z,5.65
2022-09-03T21:01:05.218Z,7.85
2022-09-03T21:03:35.510Z,5.13
2022-09-03T21:06:21.501Z,4.70
2022-09-03T21:08:59.169Z,4.10
2022-09-03T21:11:34.082Z,4.75
2022-09-03T21:14:20.199Z,4.75
2022-09-03T21:16:56.761Z,4.75
2022-09-03T21:20:16.086Z,5.00
2022-09-03T21:23:03.608Z,4.82
2022-09-03T21:25:40.078Z,5.20
2022-09-03T21:28:20.870Z,4.85
2022-09-03T21:30:55.082Z,5.00
2022-09-03T21:33:36.987Z,5.20
2022-09-03T21:36:15.749Z,4.93
2022-09-03T21:38:53.629Z,5.03
2022-09-03T21:41:36.521Z,4.63
2022-09-03T21:44:42.438Z,4.65
2022-09-03T21:47:15.776Z,4.53
2022-09-03T21:50:17.379Z,5.10
2022-09-03T21:53:03.369Z,4.77
2022-09-03T21:55:51.444Z,4.70
2022-09-03T21:58:21.584Z,4.85
2022-09-03T22:00:51.913Z,4.55
2022-09-03T22:03:21.175Z,4.57
2022-09-03T22:05:59.655Z,4.43
2022-09-03T22:08:36.206Z,4.40
2022-09-03T22:11:15.632Z,4.82
2022-09-03T22:14:13.710Z,4.85
2022-09-03T22:16:53.129Z,4.60
2022-09-03T22:19:20.649Z,4.78
2022-09-03T22:21:59.889Z,5.18
2022-09-03T22:24:52.731Z,4.47
2022-09-03T22:30:13.908Z,4.60
2022-09-03T22:32:53.158Z,4.70
2022-09-03T22:35:51.925Z,4.22
2022-09-03T22:38:43.697Z,4.72
2022-09-03T22:41:30.358Z,4.50
2022-09-03T22:44:18.522Z,4.45
2022-09-03T22:47:12.423Z,4.40
2022-09-03T22:50:17.035Z,4.80
2022-09-03T22:52:46.272Z,4.68
2022-09-03T22:55:25.580Z,4.40
2022-09-03T22:57:59.208Z,4.32
2022-09-03T23:00:29.319Z,4.15
2022-09-03T23:03:07.407Z,4.32
2022-09-03T23:05:59.041Z,4.72
2022-09-03T23:08:33.427Z,4.00
2022-09-03T23:11:25.482Z,4.70
2022-09-03T23:14:12.340Z,4.72
2022-09-03T23:16:57.635Z,5.10
2022-09-03T23:19:43.054Z,5.00
2022-09-03T23:22:22.449Z,5.18
2022-09-03T23:25:01.901Z,5.30
2022-09-03T23:27:41.820Z,5.30
2022-09-03T23:30:10.306Z,5.47
2022-09-03T23:32:38.175Z,5.45
2022-09-03T23:35:17.806Z,4.97
2022-09-03T23:38:04.378Z,5.30
2022-09-03T23:40:34.882Z,5.07
2022-09-03T23:43:11.557Z,5.03
2022-09-03T23:45:46.492Z,5.35
2022-09-03T23:48:51.504Z,4.88
2022-09-03T23:51:56.736Z,5.32
2022-09-03T23:54:49.366Z,5.45
